Airport ID:CYTF
Update Time (UTC):26/11/2020 00:21
Wind Speed (Knots):4
Wind Direction (Magnetic):150
Temperature (°C):-5.4
Dew Point (°C):-6.8
Humidity (%):90
Altimeter (inHg):30.2
Density Altitude (Feet):\\\\
Visibility (Miles):6
Clouds (Hundreds of feet):OVC027
Present Weather:
METAR:METAR CYTF 260030Z AUTO 13004KT 10SM OVC027 M05/M07 A3019

The data displayed is for advisory purposes only and is not to be used for flight planning or operations.

This page is not automatically refreshed. Reload the page to see current data.